PWSweather.com
Personal Weather Stations
Station Observations
KNCCHINA3
Red Tractor Trail, China Grove, NC 28023

Red Tractor TrailChina Grove, NC 28023

Lat: 35.59751, Lon: -80.60201

Elevation: 800

Station Type: Oregon Scientific WMR 968

http://www.joesweathergarage.com

High Low Average
Temperature 47.4°F8.6°C 41.3°F5.2°C 43.8°F6.6°C
Dew Point 33.5°F0.8°C 24.1°F-4.4°C 29.3°F-1.5°C
Winds 13.8 mph 22.2 kmh Calm Calm 6.0 mph ENE9.7 kmh ENE
Wind Gusts 26.4 mph42.5 kmh -- 11.0 mph17.7 kmh
Humidity 73% 49% 57%
Pressure 30.68 in1038.9 mb 30.50 in1032.8 mb -
Precipitation 0.00 in0.0 mm - -
Hour Temp Dew Point Humidity Winds Wind Gusts Pressure Precip Precip Rate Daily Precip Total
12:01 AM 46.3°F7.9°C 31.5°F-0.3°C 56% 12.1 mph NE19.5 kmh NE 24.6 mph39.6 kmh 30.50 in1032.8 mb 0.00 in0.0 mm 0.00 in0.0 mm 0.04 in1.0 mm
12:06 AM 46.1°F7.8°C 30.4°F-0.9°C 54% 12.2 mph E19.6 kmh E 26.0 mph41.8 kmh 30.50 in1032.8 mb 0.00 in0.0 mm 0.00 in0.0 mm 0.04 in1.0 mm
12:11 AM 46.1°F7.8°C 30.4°F-0.9°C 54% 9.6 mph E15.4 kmh E 26.0 mph41.8 kmh 30.50 in1032.8 mb 0.00 in0.0 mm 0.00 in0.0 mm 0.04 in1.0 mm
12:17 AM 46.1°F7.8°C 29.9°F-1.2°C 53% 10.3 mph E16.6 kmh E 20.2 mph32.5 kmh 30.50 in1032.8 mb 0.00 in0.0 mm 0.00 in0.0 mm 0.04 in1.0 mm
12:25 AM 45.9°F7.7°C 29.7°F-1.3°C 53% 8.7 mph ENE14.0 kmh ENE 21.0 mph33.8 kmh 30.50 in1032.8 mb 0.00 in0.0 mm 0.00 in0.0 mm 0.04 in1.0 mm
12:30 AM 45.9°F7.7°C 29.7°F-1.3°C 53% 10.5 mph E16.9 kmh E 20.6 mph33.2 kmh 30.50 in1032.8 mb 0.00 in0.0 mm 0.00 in0.0 mm 0.04 in1.0 mm
12:36 AM 45.9°F7.7°C 29.2°F-1.6°C 52% 8.2 mph E13.2 kmh E 19.2 mph30.9 kmh 30.50 in1032.8 mb 0.00 in0.0 mm 0.00 in0.0 mm 0.04 in1.0 mm
12:41 AM 45.9°F7.7°C 29.7°F-1.3°C 53% 8.5 mph ENE13.7 kmh ENE 19.2 mph30.9 kmh 30.50 in1032.8 mb 0.00 in0.0 mm 0.00 in0.0 mm 0.04 in1.0 mm
12:47 AM 45.8°F7.7°C 29.6°F-1.3°C 53% 3.8 mph E6.1 kmh E 13.0 mph20.9 kmh 30.53 in1033.9 mb 0.00 in0.0 mm 0.00 in0.0 mm 0.04 in1.0 mm
12:52 AM 45.8°F7.7°C 29.1°F-1.6°C 52% 9.8 mph ENE15.8 kmh ENE 16.2 mph26.1 kmh 30.53 in1033.9 mb 0.00 in0.0 mm 0.00 in0.0 mm 0.04 in1.0 mm
12:57 AM 45.8°F7.7°C 29.1°F-1.6°C 52% 6.5 mph ENE10.5 kmh ENE 16.2 mph26.1 kmh 30.53 in1033.9 mb 0.00 in0.0 mm 0.00 in0.0 mm 0.04 in1.0 mm
01:02 AM 45.8°F7.7°C 28.7°F-1.8°C 51% 9.0 mph E14.5 kmh E 15.2 mph24.5 kmh 30.53 in1033.9 mb 0.00 in0.0 mm 0.00 in0.0 mm 0.00 in0.0 mm
01:08 AM 45.8°F7.7°C 29.1°F-1.6°C 52% 6.7 mph E10.8 kmh E 15.2 mph24.5 kmh 30.53 in1033.9 mb 0.00 in0.0 mm 0.00 in0.0 mm 0.00 in0.0 mm
01:13 AM 45.8°F7.7°C 28.7°F-1.8°C 51% 7.4 mph E11.9 kmh E 26.4 mph42.5 kmh 30.56 in1034.9 mb 0.00 in0.0 mm 0.00 in0.0 mm 0.00 in0.0 mm
01:18 AM 45.8°F7.7°C 28.7°F-1.8°C 51% 9.3 mph ENE15.0 kmh ENE 26.4 mph42.5 kmh 30.56 in1034.9 mb 0.00 in0.0 mm 0.00 in0.0 mm 0.00 in0.0 mm
01:23 AM 45.8°F7.7°C 29.1°F-1.6°C 52% 5.4 mph ENE8.7 kmh ENE 13.0 mph20.9 kmh 30.56 in1034.9 mb 0.00 in0.0 mm 0.00 in0.0 mm 0.00 in0.0 mm
01:29 AM 45.6°F7.6°C 29.4°F-1.4°C 53% 10.8 mph ENE17.4 kmh ENE 19.6 mph31.5 kmh 30.53 in1033.9 mb 0.00 in0.0 mm 0.00 in0.0 mm 0.00 in0.0 mm
01:35 AM 45.6°F7.6°C 29.4°F-1.4°C 53% 6.2 mph E10.0 kmh E 19.6 mph31.5 kmh 30.53 in1033.9 mb 0.00 in0.0 mm 0.00 in0.0 mm 0.00 in0.0 mm
01:40 AM 45.4°F7.4°C 29.3°F-1.5°C 53% 7.3 mph E11.7 kmh E 19.6 mph31.5 kmh 30.53 in1033.9 mb 0.00 in0.0 mm 0.00 in0.0 mm 0.00 in0.0 mm
01:45 AM 45.4°F7.4°C 29.3°F-1.5°C 53% 7.7 mph ENE12.4 kmh ENE 17.0 mph27.4 kmh 30.53 in1033.9 mb 0.00 in0.0 mm 0.00 in0.0 mm 0.00 in0.0 mm
01:50 AM 45.4°F7.4°C 29.3°F-1.5°C 53% 9.6 mph ENE15.4 kmh ENE 17.0 mph27.4 kmh 30.53 in1033.9 mb 0.00 in0.0 mm 0.00 in0.0 mm 0.00 in0.0 mm
01:55 AM 45.4°F7.4°C 29.7°F-1.3°C 54% 5.8 mph NE9.3 kmh NE 17.0 mph27.4 kmh 30.53 in1033.9 mb 0.00 in0.0 mm 0.00 in0.0 mm 0.00 in0.0 mm
02:00 AM 45.2°F7.3°C 30.5°F-0.8°C 56% 6.7 mph ENE10.8 kmh ENE 14.8 mph23.8 kmh 30.56 in1034.9 mb 0.00 in0.0 mm 0.00 in0.0 mm 0.00 in0.0 mm
02:05 AM 45.2°F7.3°C 31.3°F-0.4°C 58% 9.2 mph E14.8 kmh E 13.0 mph20.9 kmh 30.56 in1034.9 mb 0.00 in0.0 mm 0.00 in0.0 mm 0.00 in0.0 mm
02:10 AM 45.0°F7.2°C 32.4°F0.2°C 61% 9.4 mph E15.1 kmh E 14.8 mph23.8 kmh 30.56 in1034.9 mb 0.00 in0.0 mm 0.00 in0.0 mm 0.00 in0.0 mm
02:15 AM 44.9°F7.2°C 32.3°F0.2°C 61% 8.9 mph NE14.3 kmh NE 14.8 mph23.8 kmh 30.53 in1033.9 mb 0.00 in0.0 mm 0.00 in0.0 mm 0.00 in0.0 mm
02:22 AM 44.7°F7.1°C 32.1°F0.1°C 61% 9.1 mph NE14.6 kmh NE 20.2 mph32.5 kmh 30.53 in1033.9 mb 0.00 in0.0 mm 0.00 in0.0 mm 0.00 in0.0 mm
02:27 AM 44.5°F6.9°C 32.0°F0.0°C 61% 9.7 mph ENE15.6 kmh ENE 20.2 mph32.5 kmh 30.56 in1034.9 mb 0.00 in0.0 mm 0.00 in0.0 mm 0.00 in0.0 mm
02:32 AM 44.3°F6.8°C 31.8°F-0.1°C 61% 10.4 mph ENE16.7 kmh ENE 15.6 mph25.1 kmh 30.56 in1034.9 mb 0.00 in0.0 mm 0.00 in0.0 mm 0.00 in0.0 mm
02:37 AM 44.1°F6.7°C 30.7°F-0.7°C 59% 10.9 mph ENE17.5 kmh ENE 15.6 mph25.1 kmh 30.56 in1034.9 mb 0.00 in0.0 mm 0.00 in0.0 mm 0.00 in0.0 mm
02:43 AM 44.1°F6.7°C 31.2°F-0.4°C 60% 9.4 mph ENE15.1 kmh ENE 13.4 mph21.6 kmh 30.56 in1034.9 mb 0.00 in0.0 mm 0.00 in0.0 mm 0.00 in0.0 mm
02:48 AM 44.1°F6.7°C 30.7°F-0.7°C 59% 9.3 mph ENE15.0 kmh ENE 13.0 mph20.9 kmh 30.56 in1034.9 mb 0.00 in0.0 mm 0.00 in0.0 mm 0.00 in0.0 mm
02:53 AM 44.1°F6.7°C 31.2°F-0.4°C 60% 6.1 mph E9.8 kmh E 12.6 mph20.3 kmh 30.56 in1034.9 mb 0.00 in0.0 mm 0.00 in0.0 mm 0.00 in0.0 mm
02:58 AM 44.1°F6.7°C 30.7°F-0.7°C 59% 6.2 mph E10.0 kmh E 11.6 mph18.7 kmh 30.56 in1034.9 mb 0.00 in0.0 mm 0.00 in0.0 mm 0.00 in0.0 mm
03:03 AM 44.1°F6.7°C 29.9°F-1.2°C 57% 10.3 mph ENE16.6 kmh ENE 19.6 mph31.5 kmh 30.56 in1034.9 mb 0.00 in0.0 mm 0.00 in0.0 mm 0.00 in0.0 mm
03:08 AM 44.3°F6.8°C 30.1°F-1.1°C 57% 8.5 mph ENE13.7 kmh ENE 19.6 mph31.5 kmh 30.56 in1034.9 mb 0.00 in0.0 mm 0.00 in0.0 mm 0.00 in0.0 mm
03:13 AM 44.3°F6.8°C 30.1°F-1.1°C 57% 6.3 mph ENE10.1 kmh ENE 19.6 mph31.5 kmh 30.53 in1033.9 mb 0.00 in0.0 mm 0.00 in0.0 mm 0.00 in0.0 mm
03:18 AM 44.3°F6.8°C 30.1°F-1.1°C 57% 7.7 mph E12.4 kmh E 11.6 mph18.7 kmh 30.53 in1033.9 mb 0.00 in0.0 mm 0.00 in0.0 mm 0.00 in0.0 mm
03:24 AM 44.3°F6.8°C 30.1°F-1.1°C 57% 7.6 mph E12.2 kmh E 11.6 mph18.7 kmh 30.53 in1033.9 mb 0.00 in0.0 mm 0.00 in0.0 mm 0.00 in0.0 mm
03:29 AM 44.3°F6.8°C 29.6°F-1.3°C 56% 6.9 mph ENE11.1 kmh ENE 12.0 mph19.3 kmh 30.56 in1034.9 mb 0.00 in0.0 mm 0.00 in0.0 mm 0.00 in0.0 mm
03:34 AM 44.3°F6.8°C 29.6°F-1.3°C 56% 5.6 mph NE9.0 kmh NE 12.0 mph19.3 kmh 30.56 in1034.9 mb 0.00 in0.0 mm 0.00 in0.0 mm 0.00 in0.0 mm
03:56 AM 44.1°F6.7°C 29.0°F-1.7°C 55% 9.5 mph E15.3 kmh E 12.6 mph20.3 kmh 30.53 in1033.9 mb 0.00 in0.0 mm 0.00 in0.0 mm 0.00 in0.0 mm
04:00 AM 44.1°F6.7°C 29.0°F-1.7°C 55% 8.7 mph E14.0 kmh E 13.0 mph20.9 kmh 30.56 in1034.9 mb 0.00 in0.0 mm 0.00 in0.0 mm 0.00 in0.0 mm
04:06 AM 44.1°F6.7°C 29.0°F-1.7°C 55% 10.1 mph E16.3 kmh E 15.2 mph24.5 kmh 30.56 in1034.9 mb 0.00 in0.0 mm 0.00 in0.0 mm 0.00 in0.0 mm
04:10 AM 44.1°F6.7°C 29.0°F-1.7°C 55% 8.8 mph NE14.2 kmh NE 15.2 mph24.5 kmh 30.56 in1034.9 mb 0.00 in0.0 mm 0.00 in0.0 mm 0.00 in0.0 mm
04:16 AM 44.1°F6.7°C 28.5°F-1.9°C 54% 9.5 mph ENE15.3 kmh ENE 17.4 mph28.0 kmh 30.56 in1034.9 mb 0.00 in0.0 mm 0.00 in0.0 mm 0.00 in0.0 mm
04:21 AM 44.1°F6.7°C 28.5°F-1.9°C 54% 6.7 mph NE10.8 kmh NE 17.4 mph28.0 kmh 30.56 in1034.9 mb 0.00 in0.0 mm 0.00 in0.0 mm 0.00 in0.0 mm
04:26 AM 44.1°F6.7°C 29.0°F-1.7°C 55% 5.9 mph ENE9.5 kmh ENE 11.2 mph18.0 kmh 30.56 in1034.9 mb 0.00 in0.0 mm 0.00 in0.0 mm 0.00 in0.0 mm
04:31 AM 44.0°F6.7°C 28.4°F-2.0°C 54% 11.1 mph NE17.9 kmh NE 13.0 mph20.9 kmh 30.56 in1034.9 mb 0.00 in0.0 mm 0.00 in0.0 mm 0.00 in0.0 mm
04:36 AM 44.0°F6.7°C 28.4°F-2.0°C 54% 9.5 mph ENE15.3 kmh ENE 13.0 mph20.9 kmh 30.56 in1034.9 mb 0.00 in0.0 mm 0.00 in0.0 mm 0.00 in0.0 mm
04:41 AM 44.0°F6.7°C 28.4°F-2.0°C 54% 11.4 mph NE18.3 kmh NE 14.8 mph23.8 kmh 30.56 in1034.9 mb 0.00 in0.0 mm 0.00 in0.0 mm 0.00 in0.0 mm
04:46 AM 44.0°F6.7°C 28.4°F-2.0°C 54% 10.3 mph NE16.6 kmh NE 14.8 mph23.8 kmh 30.56 in1034.9 mb 0.00 in0.0 mm 0.00 in0.0 mm 0.00 in0.0 mm
04:51 AM 43.8°F6.6°C 28.2°F-2.1°C 54% 9.4 mph NE15.1 kmh NE 13.0 mph20.9 kmh 30.56 in1034.9 mb 0.00 in0.0 mm 0.00 in0.0 mm 0.00 in0.0 mm
04:56 AM 43.8°F6.6°C 27.8°F-2.3°C 53% 13.5 mph NNE21.7 kmh NNE 17.0 mph27.4 kmh 30.56 in1034.9 mb 0.00 in0.0 mm 0.00 in0.0 mm 0.00 in0.0 mm
05:01 AM 43.8°F6.6°C 28.2°F-2.1°C 54% 8.1 mph NE13.0 kmh NE 17.0 mph27.4 kmh 30.56 in1034.9 mb 0.00 in0.0 mm 0.00 in0.0 mm 0.00 in0.0 mm
05:07 AM 43.8°F6.6°C 28.2°F-2.1°C 54% 9.9 mph NE15.9 kmh NE 17.0 mph27.4 kmh 30.56 in1034.9 mb 0.00 in0.0 mm 0.00 in0.0 mm 0.00 in0.0 mm
05:12 AM 43.8°F6.6°C 28.2°F-2.1°C 54% 4.9 mph E7.9 kmh E 16.2 mph26.1 kmh 30.56 in1034.9 mb 0.00 in0.0 mm 0.00 in0.0 mm 0.00 in0.0 mm
05:17 AM 43.6°F6.4°C 27.6°F-2.4°C 53% 10.5 mph NE16.9 kmh NE 14.8 mph23.8 kmh 30.56 in1034.9 mb 0.00 in0.0 mm 0.00 in0.0 mm 0.00 in0.0 mm
05:22 AM 43.6°F6.4°C 28.0°F-2.2°C 54% 6.4 mph ENE10.3 kmh ENE 14.8 mph23.8 kmh 30.56 in1034.9 mb 0.00 in0.0 mm 0.00 in0.0 mm 0.00 in0.0 mm
05:28 AM 43.6°F6.4°C 28.0°F-2.2°C 54% 6.4 mph NE10.3 kmh NE 12.6 mph20.3 kmh 30.56 in1034.9 mb 0.00 in0.0 mm 0.00 in0.0 mm 0.00 in0.0 mm
05:33 AM 43.6°F6.4°C 28.0°F-2.2°C 54% 5.3 mph ENE8.5 kmh ENE 13.0 mph20.9 kmh 30.56 in1034.9 mb 0.00 in0.0 mm 0.00 in0.0 mm 0.00 in0.0 mm
05:51 AM 43.4°F6.3°C 27.4°F-2.6°C 53% 8.2 mph NE13.2 kmh NE 16.2 mph26.1 kmh 30.56 in1034.9 mb 0.00 in0.0 mm 0.00 in0.0 mm 0.00 in0.0 mm
05:59 AM 43.4°F6.3°C 27.4°F-2.6°C 53% 6.2 mph ENE10.0 kmh ENE 12.0 mph19.3 kmh 30.53 in1033.9 mb 0.00 in0.0 mm 0.00 in0.0 mm 0.00 in0.0 mm
06:04 AM 43.4°F6.3°C 27.4°F-2.6°C 53% 7.6 mph NE12.2 kmh NE 12.0 mph19.3 kmh 30.53 in1033.9 mb 0.00 in0.0 mm 0.00 in0.0 mm 0.00 in0.0 mm
06:09 AM 43.4°F6.3°C 27.4°F-2.6°C 53% 6.7 mph NE10.8 kmh NE 11.2 mph18.0 kmh 30.53 in1033.9 mb 0.00 in0.0 mm 0.00 in0.0 mm 0.00 in0.0 mm
06:14 AM 43.2°F6.2°C 26.7°F-2.9°C 52% 9.1 mph ENE14.6 kmh ENE 13.0 mph20.9 kmh 30.53 in1033.9 mb 0.00 in0.0 mm 0.00 in0.0 mm 0.00 in0.0 mm
06:38 AM 42.9°F6.1°C 26.5°F-3.1°C 52% 8.8 mph ENE14.2 kmh ENE 13.0 mph20.9 kmh 30.56 in1034.9 mb 0.00 in0.0 mm 0.00 in0.0 mm 0.00 in0.0 mm
06:43 AM 42.9°F6.1°C 26.0°F-3.3°C 51% 10.2 mph NE16.4 kmh NE 17.0 mph27.4 kmh 30.56 in1034.9 mb 0.00 in0.0 mm 0.00 in0.0 mm 0.00 in0.0 mm
06:48 AM 42.9°F6.1°C 26.0°F-3.3°C 51% 9.7 mph ENE15.6 kmh ENE 17.0 mph27.4 kmh 30.56 in1034.9 mb 0.00 in0.0 mm 0.00 in0.0 mm 0.00 in0.0 mm
06:53 AM 42.9°F6.1°C 26.0°F-3.3°C 51% 8.6 mph NE13.8 kmh NE 15.6 mph25.1 kmh 30.56 in1034.9 mb 0.00 in0.0 mm 0.00 in0.0 mm 0.00 in0.0 mm
06:58 AM 42.9°F6.1°C 26.5°F-3.1°C 52% 6.6 mph NE10.6 kmh NE 15.6 mph25.1 kmh 30.59 in1035.9 mb 0.00 in0.0 mm 0.00 in0.0 mm 0.00 in0.0 mm
07:21 AM 42.7°F5.9°C 26.7°F-2.9°C 53% 9.5 mph NNE15.3 kmh NNE 13.0 mph20.9 kmh 30.59 in1035.9 mb 0.00 in0.0 mm 0.00 in0.0 mm 0.00 in0.0 mm
07:26 AM 42.5°F5.8°C 27.5°F-2.5°C 55% 10.3 mph NE16.6 kmh NE 15.6 mph25.1 kmh 30.59 in1035.9 mb 0.00 in0.0 mm 0.00 in0.0 mm 0.00 in0.0 mm
07:31 AM 42.3°F5.7°C 27.3°F-2.6°C 55% 7.8 mph NE12.6 kmh NE 15.6 mph25.1 kmh 30.59 in1035.9 mb 0.00 in0.0 mm 0.00 in0.0 mm 0.00 in0.0 mm
07:36 AM 42.3°F5.7°C 27.7°F-2.4°C 56% 5.4 mph NE8.7 kmh NE 11.2 mph18.0 kmh 30.59 in1035.9 mb 0.00 in0.0 mm 0.00 in0.0 mm 0.00 in0.0 mm
07:41 AM 42.2°F5.7°C 27.6°F-2.4°C 56% 9.7 mph NE15.6 kmh NE 15.2 mph24.5 kmh 30.59 in1035.9 mb 0.00 in0.0 mm 0.00 in0.0 mm 0.00 in0.0 mm
08:04 AM 42.0°F5.6°C 26.6°F-3.0°C 54% 11.3 mph NE18.2 kmh NE 17.4 mph28.0 kmh 30.62 in1036.9 mb 0.00 in0.0 mm 0.00 in0.0 mm 0.00 in0.0 mm
08:09 AM 42.0°F5.6°C 26.6°F-3.0°C 54% 12.4 mph NE20.0 kmh NE 19.6 mph31.5 kmh 30.62 in1036.9 mb 0.00 in0.0 mm 0.00 in0.0 mm 0.00 in0.0 mm
08:14 AM 41.8°F5.4°C 26.4°F-3.1°C 54% 12.6 mph ENE20.3 kmh ENE 19.6 mph31.5 kmh 30.62 in1036.9 mb 0.00 in0.0 mm 0.00 in0.0 mm 0.00 in0.0 mm
08:19 AM 41.8°F5.4°C 25.9°F-3.4°C 53% 13.8 mph NE22.2 kmh NE 23.8 mph38.3 kmh 30.62 in1036.9 mb 0.00 in0.0 mm 0.00 in0.0 mm 0.00 in0.0 mm
08:24 AM 41.8°F5.4°C 25.9°F-3.4°C 53% 12.2 mph NE19.6 kmh NE 23.8 mph38.3 kmh 30.62 in1036.9 mb 0.00 in0.0 mm 0.00 in0.0 mm 0.00 in0.0 mm
08:47 AM 42.0°F5.6°C 25.6°F-3.6°C 52% 10.2 mph NE16.4 kmh NE 19.2 mph30.9 kmh 30.62 in1036.9 mb 0.00 in0.0 mm 0.00 in0.0 mm 0.00 in0.0 mm
08:52 AM 42.2°F5.7°C 25.8°F-3.4°C 52% 8.3 mph E13.4 kmh E 15.2 mph24.5 kmh 30.62 in1036.9 mb 0.00 in0.0 mm 0.00 in0.0 mm 0.00 in0.0 mm
08:57 AM 42.2°F5.7°C 25.8°F-3.4°C 52% 8.0 mph ENE12.9 kmh ENE 13.0 mph20.9 kmh 30.62 in1036.9 mb 0.00 in0.0 mm 0.00 in0.0 mm 0.00 in0.0 mm
09:02 AM 42.3°F5.7°C 25.9°F-3.4°C 52% 6.3 mph NE10.1 kmh NE 13.0 mph20.9 kmh 30.62 in1036.9 mb 0.00 in0.0 mm 0.00 in0.0 mm 0.00 in0.0 mm
09:07 AM 42.2°F5.7°C 26.3°F-3.2°C 53% 10.4 mph NE16.7 kmh NE 15.6 mph25.1 kmh 30.62 in1036.9 mb 0.00 in0.0 mm 0.00 in0.0 mm 0.00 in0.0 mm
09:30 AM 41.8°F5.4°C 25.9°F-3.4°C 53% 10.8 mph ENE17.4 kmh ENE 18.4 mph29.6 kmh 30.65 in1037.9 mb 0.00 in0.0 mm 0.00 in0.0 mm 0.00 in0.0 mm
09:35 AM 41.8°F5.4°C 25.9°F-3.4°C 53% 9.2 mph E14.8 kmh E 18.4 mph29.6 kmh 30.65 in1037.9 mb 0.00 in0.0 mm 0.00 in0.0 mm 0.00 in0.0 mm
09:40 AM 41.6°F5.3°C 25.7°F-3.5°C 53% 11.6 mph ENE18.7 kmh ENE 20.2 mph32.5 kmh 30.65 in1037.9 mb 0.00 in0.0 mm 0.00 in0.0 mm 0.00 in0.0 mm
09:45 AM 41.6°F5.3°C 25.7°F-3.5°C 53% 9.9 mph NE15.9 kmh NE 20.2 mph32.5 kmh 30.65 in1037.9 mb 0.00 in0.0 mm 0.00 in0.0 mm 0.00 in0.0 mm
10:15 AM 41.6°F5.3°C 25.2°F-3.8°C 52% 13.2 mph NE21.2 kmh NE 22.0 mph35.4 kmh 30.68 in1038.9 mb 0.00 in0.0 mm 0.00 in0.0 mm 0.00 in0.0 mm
10:21 AM 41.8°F5.4°C 25.4°F-3.7°C 52% 10.3 mph NE16.6 kmh NE 22.8 mph36.7 kmh 30.68 in1038.9 mb 0.00 in0.0 mm 0.00 in0.0 mm 0.00 in0.0 mm
10:25 AM 42.0°F5.6°C 25.6°F-3.6°C 52% 8.3 mph ENE13.4 kmh ENE 22.8 mph36.7 kmh 30.68 in1038.9 mb 0.00 in0.0 mm 0.00 in0.0 mm 0.00 in0.0 mm
10:30 AM 42.2°F5.7°C 25.8°F-3.4°C 52% 6.3 mph ENE10.1 kmh ENE 15.2 mph24.5 kmh 30.68 in1038.9 mb 0.00 in0.0 mm 0.00 in0.0 mm 0.00 in0.0 mm
10:53 AM 42.0°F5.6°C 25.1°F-3.8°C 51% 8.4 mph ENE13.5 kmh ENE 17.8 mph28.6 kmh 30.68 in1038.9 mb 0.00 in0.0 mm 0.00 in0.0 mm 0.00 in0.0 mm
10:58 AM 41.6°F5.3°C 24.3°F-4.3°C 50% 12.1 mph ENE19.5 kmh ENE 16.2 mph26.1 kmh 30.68 in1038.9 mb 0.00 in0.0 mm 0.00 in0.0 mm 0.00 in0.0 mm
11:03 AM 41.4°F5.2°C 24.1°F-4.4°C 50% 13.3 mph NE21.4 kmh NE 19.6 mph31.5 kmh 30.68 in1038.9 mb 0.00 in0.0 mm 0.00 in0.0 mm 0.00 in0.0 mm
11:08 AM 41.6°F5.3°C 24.3°F-4.3°C 50% 10.6 mph ENE17.1 kmh ENE 19.6 mph31.5 kmh 30.68 in1038.9 mb 0.00 in0.0 mm 0.00 in0.0 mm 0.00 in0.0 mm
11:36 AM 42.7°F5.9°C 25.8°F-3.4°C 51% 7.4 mph NE11.9 kmh NE 15.6 mph25.1 kmh 30.68 in1038.9 mb 0.00 in0.0 mm 0.00 in0.0 mm 0.00 in0.0 mm
11:41 AM 42.3°F5.7°C 25.4°F-3.7°C 51% 12.8 mph NNE20.6 kmh NNE 17.0 mph27.4 kmh 30.68 in1038.9 mb 0.00 in0.0 mm 0.00 in0.0 mm 0.00 in0.0 mm
11:46 AM 42.7°F5.9°C 25.8°F-3.4°C 51% 8.0 mph ENE12.9 kmh ENE 17.0 mph27.4 kmh 30.68 in1038.9 mb 0.00 in0.0 mm 0.00 in0.0 mm 0.00 in0.0 mm
11:51 AM 42.5°F5.8°C 25.6°F-3.6°C 51% 11.6 mph NE18.7 kmh NE 17.4 mph28.0 kmh 30.68 in1038.9 mb 0.00 in0.0 mm 0.00 in0.0 mm 0.00 in0.0 mm
12:09 PM 43.4°F6.3°C 26.4°F-3.1°C 51% 12.0 mph NE19.3 kmh NE 15.6 mph25.1 kmh 30.68 in1038.9 mb 0.00 in0.0 mm 0.00 in0.0 mm 0.00 in0.0 mm
12:16 PM 43.8°F6.6°C 26.8°F-2.9°C 51% 13.7 mph NE22.0 kmh NE 17.0 mph27.4 kmh 30.65 in1037.9 mb 0.00 in0.0 mm 0.00 in0.0 mm 0.00 in0.0 mm
12:21 PM 44.0°F6.7°C 27.5°F-2.5°C 52% 11.5 mph NE18.5 kmh NE 20.6 mph33.2 kmh 30.65 in1037.9 mb 0.00 in0.0 mm 0.00 in0.0 mm 0.00 in0.0 mm
12:26 PM 44.0°F6.7°C 27.5°F-2.5°C 52% 11.5 mph NE18.5 kmh NE 20.6 mph33.2 kmh 30.65 in1037.9 mb 0.00 in0.0 mm 0.00 in0.0 mm 0.00 in0.0 mm
12:31 PM 45.0°F7.2°C 28.4°F-2.0°C 52% 9.9 mph NE15.9 kmh NE 15.2 mph24.5 kmh 30.68 in1038.9 mb 0.00 in0.0 mm 0.00 in0.0 mm 0.00 in0.0 mm
12:54 PM 44.3°F6.8°C 27.8°F-2.3°C 52% 9.9 mph NNE15.9 kmh NNE 16.2 mph26.1 kmh 30.65 in1037.9 mb 0.00 in0.0 mm 0.00 in0.0 mm 0.00 in0.0 mm
01:00 PM 45.0°F7.2°C 27.9°F-2.3°C 51% 8.6 mph NE13.8 kmh NE 19.6 mph31.5 kmh 30.65 in1037.9 mb 0.00 in0.0 mm 0.00 in0.0 mm 0.00 in0.0 mm
01:05 PM 45.4°F7.4°C 28.3°F-2.1°C 51% 7.3 mph ENE11.7 kmh ENE 19.6 mph31.5 kmh 30.65 in1037.9 mb 0.00 in0.0 mm 0.00 in0.0 mm 0.00 in0.0 mm
01:10 PM 45.9°F7.7°C 28.7°F-1.8°C 51% 9.4 mph NNE15.1 kmh NNE 15.2 mph24.5 kmh 30.65 in1037.9 mb 0.00 in0.0 mm 0.00 in0.0 mm 0.00 in0.0 mm
01:22 PM 45.0°F7.2°C 27.9°F-2.3°C 51% 8.9 mph ENE14.3 kmh ENE 17.4 mph28.0 kmh 30.65 in1037.9 mb 0.00 in0.0 mm 0.00 in0.0 mm 0.00 in0.0 mm
01:29 PM 44.9°F7.2°C 27.8°F-2.3°C 51% 9.6 mph ESE15.4 kmh ESE 15.2 mph24.5 kmh 30.65 in1037.9 mb 0.00 in0.0 mm 0.00 in0.0 mm 0.00 in0.0 mm
01:34 PM 44.9°F7.2°C 27.8°F-2.3°C 51% 11.7 mph NE18.8 kmh NE 15.2 mph24.5 kmh 30.65 in1037.9 mb 0.00 in0.0 mm 0.00 in0.0 mm 0.00 in0.0 mm
01:39 PM 44.9°F7.2°C 27.3°F-2.6°C 50% 8.0 mph ENE12.9 kmh ENE 16.2 mph26.1 kmh 30.65 in1037.9 mb 0.00 in0.0 mm 0.00 in0.0 mm 0.00 in0.0 mm
01:44 PM 44.9°F7.2°C 27.3°F-2.6°C 50% 9.3 mph NE15.0 kmh NE 16.2 mph26.1 kmh 30.62 in1036.9 mb 0.00 in0.0 mm 0.00 in0.0 mm 0.00 in0.0 mm
01:49 PM 45.2°F7.3°C 27.6°F-2.4°C 50% 9.8 mph NE15.8 kmh NE 13.0 mph20.9 kmh 30.62 in1036.9 mb 0.00 in0.0 mm 0.00 in0.0 mm 0.00 in0.0 mm
01:54 PM 45.4°F7.4°C 27.8°F-2.3°C 50% 7.5 mph NE12.1 kmh NE 13.0 mph20.9 kmh 30.62 in1036.9 mb 0.00 in0.0 mm 0.00 in0.0 mm 0.00 in0.0 mm
01:59 PM 45.4°F7.4°C 27.8°F-2.3°C 50% 11.2 mph NE18.0 kmh NE 13.0 mph20.9 kmh 30.62 in1036.9 mb 0.00 in0.0 mm 0.00 in0.0 mm 0.00 in0.0 mm
02:04 PM 46.1°F7.8°C 28.4°F-2.0°C 50% 8.4 mph E13.5 kmh E 13.0 mph20.9 kmh 30.62 in1036.9 mb 0.00 in0.0 mm 0.00 in0.0 mm 0.00 in0.0 mm
02:09 PM 45.8°F7.7°C 27.6°F-2.4°C 49% 10.2 mph E16.4 kmh E 16.2 mph26.1 kmh 30.62 in1036.9 mb 0.00 in0.0 mm 0.00 in0.0 mm 0.00 in0.0 mm
02:14 PM 45.4°F7.4°C 27.3°F-2.6°C 49% 8.1 mph NE13.0 kmh NE 16.2 mph26.1 kmh 30.62 in1036.9 mb 0.00 in0.0 mm 0.00 in0.0 mm 0.00 in0.0 mm
02:19 PM 44.9°F7.2°C 26.8°F-2.9°C 49% 11.6 mph NE18.7 kmh NE 15.6 mph25.1 kmh 30.62 in1036.9 mb 0.00 in0.0 mm 0.00 in0.0 mm 0.00 in0.0 mm
02:24 PM 45.0°F7.2°C 27.4°F-2.6°C 50% 10.0 mph NNE16.1 kmh NNE 15.6 mph25.1 kmh 30.62 in1036.9 mb 0.00 in0.0 mm 0.00 in0.0 mm 0.00 in0.0 mm
02:29 PM 46.3°F7.9°C 28.6°F-1.9°C 50% 6.9 mph NE11.1 kmh NE 13.0 mph20.9 kmh 30.62 in1036.9 mb 0.00 in0.0 mm 0.00 in0.0 mm 0.00 in0.0 mm
02:35 PM 46.3°F7.9°C 28.6°F-1.9°C 50% 8.1 mph E13.0 kmh E 17.8 mph28.6 kmh 30.62 in1036.9 mb 0.00 in0.0 mm 0.00 in0.0 mm 0.00 in0.0 mm
02:40 PM 46.7°F8.2°C 28.5°F-1.9°C 49% 10.2 mph NNE16.4 kmh NNE 17.8 mph28.6 kmh 30.62 in1036.9 mb 0.00 in0.0 mm 0.00 in0.0 mm 0.00 in0.0 mm
02:46 PM 46.8°F8.2°C 29.1°F-1.6°C 50% 5.5 mph E8.9 kmh E 12.6 mph20.3 kmh 30.62 in1036.9 mb 0.00 in0.0 mm 0.00 in0.0 mm 0.00 in0.0 mm
02:51 PM 47.4°F8.6°C 29.6°F-1.3°C 50% 7.2 mph ENE11.6 kmh ENE 10.8 mph17.4 kmh 30.62 in1036.9 mb 0.00 in0.0 mm 0.00 in0.0 mm 0.00 in0.0 mm
02:56 PM 47.2°F8.4°C 28.9°F-1.7°C 49% 6.1 mph E9.8 kmh E 11.6 mph18.7 kmh 30.62 in1036.9 mb 0.00 in0.0 mm 0.00 in0.0 mm 0.00 in0.0 mm
03:01 PM 47.0°F8.3°C 28.8°F-1.8°C 49% 5.5 mph SE8.9 kmh SE 11.6 mph18.7 kmh 30.62 in1036.9 mb 0.00 in0.0 mm 0.00 in0.0 mm 0.00 in0.0 mm
03:06 PM 46.8°F8.2°C 28.6°F-1.9°C 49% 7.4 mph ENE11.9 kmh ENE 13.0 mph20.9 kmh 30.62 in1036.9 mb 0.00 in0.0 mm 0.00 in0.0 mm 0.00 in0.0 mm
03:11 PM 47.0°F8.3°C 29.3°F-1.5°C 50% 5.6 mph SE9.0 kmh SE 13.0 mph20.9 kmh 30.62 in1036.9 mb 0.00 in0.0 mm 0.00 in0.0 mm 0.00 in0.0 mm
03:16 PM 47.2°F8.4°C 29.4°F-1.4°C 50% 6.5 mph E10.5 kmh E 11.6 mph18.7 kmh 30.62 in1036.9 mb 0.00 in0.0 mm 0.00 in0.0 mm 0.00 in0.0 mm
03:21 PM 47.2°F8.4°C 29.4°F-1.4°C 50% 6.3 mph ESE10.1 kmh ESE 8.6 mph13.8 kmh 30.62 in1036.9 mb 0.00 in0.0 mm 0.00 in0.0 mm 0.00 in0.0 mm
03:26 PM 46.7°F8.2°C 28.5°F-1.9°C 49% 6.7 mph NNE10.8 kmh NNE 10.8 mph17.4 kmh 30.62 in1036.9 mb 0.00 in0.0 mm 0.00 in0.0 mm 0.00 in0.0 mm
03:31 PM 47.4°F8.6°C 29.6°F-1.3°C 50% 3.8 mph ENE6.1 kmh ENE 10.8 mph17.4 kmh 30.59 in1035.9 mb 0.00 in0.0 mm 0.00 in0.0 mm 0.00 in0.0 mm
03:37 PM 47.4°F8.6°C 29.6°F-1.3°C 50% 8.0 mph ENE12.9 kmh ENE 12.6 mph20.3 kmh 30.59 in1035.9 mb 0.00 in0.0 mm 0.00 in0.0 mm 0.00 in0.0 mm
03:42 PM 47.2°F8.4°C 29.4°F-1.4°C 50% 4.9 mph ESE7.9 kmh ESE 12.6 mph20.3 kmh 30.59 in1035.9 mb 0.00 in0.0 mm 0.00 in0.0 mm 0.00 in0.0 mm
03:47 PM 46.7°F8.2°C 29.0°F-1.7°C 50% 7.1 mph NE11.4 kmh NE 12.6 mph20.3 kmh 30.59 in1035.9 mb 0.00 in0.0 mm 0.00 in0.0 mm 0.00 in0.0 mm
03:52 PM 46.7°F8.2°C 29.0°F-1.7°C 50% 7.8 mph ENE12.6 kmh ENE 12.6 mph20.3 kmh 30.59 in1035.9 mb 0.00 in0.0 mm 0.00 in0.0 mm 0.00 in0.0 mm
03:58 PM 46.7°F8.2°C 29.0°F-1.7°C 50% 8.9 mph NE14.3 kmh NE 11.6 mph18.7 kmh 30.59 in1035.9 mb 0.00 in0.0 mm 0.00 in0.0 mm 0.00 in0.0 mm
04:03 PM 47.2°F8.4°C 29.4°F-1.4°C 50% 4.1 mph NNE6.6 kmh NNE 11.6 mph18.7 kmh 30.59 in1035.9 mb 0.00 in0.0 mm 0.00 in0.0 mm 0.00 in0.0 mm
04:08 PM 46.8°F8.2°C 29.1°F-1.6°C 50% 9.5 mph ENE15.3 kmh ENE 11.6 mph18.7 kmh 30.59 in1035.9 mb 0.00 in0.0 mm 0.00 in0.0 mm 0.00 in0.0 mm
04:13 PM 46.3°F7.9°C 28.6°F-1.9°C 50% 7.4 mph NNE11.9 kmh NNE 11.6 mph18.7 kmh 30.59 in1035.9 mb 0.00 in0.0 mm 0.00 in0.0 mm 0.00 in0.0 mm
04:18 PM 46.1°F7.8°C 28.9°F-1.7°C 51% 7.9 mph NE12.7 kmh NE 12.0 mph19.3 kmh 30.59 in1035.9 mb 0.00 in0.0 mm 0.00 in0.0 mm 0.00 in0.0 mm
04:23 PM 46.5°F8.1°C 29.3°F-1.5°C 51% 4.3 mph E6.9 kmh E 12.0 mph19.3 kmh 30.59 in1035.9 mb 0.00 in0.0 mm 0.00 in0.0 mm 0.00 in0.0 mm
04:28 PM 46.7°F8.2°C 29.5°F-1.4°C 51% 5.8 mph ENE9.3 kmh ENE 11.6 mph18.7 kmh 30.56 in1034.9 mb 0.00 in0.0 mm 0.00 in0.0 mm 0.00 in0.0 mm
04:33 PM 46.5°F8.1°C 29.3°F-1.5°C 51% 5.4 mph NE8.7 kmh NE 11.2 mph18.0 kmh 30.56 in1034.9 mb 0.00 in0.0 mm 0.00 in0.0 mm 0.00 in0.0 mm
04:39 PM 46.5°F8.1°C 29.3°F-1.5°C 51% 5.2 mph NE8.4 kmh NE 8.6 mph13.8 kmh 30.56 in1034.9 mb 0.00 in0.0 mm 0.00 in0.0 mm 0.00 in0.0 mm
04:44 PM 46.3°F7.9°C 29.1°F-1.6°C 51% 3.6 mph E5.8 kmh E 8.0 mph12.9 kmh 30.56 in1034.9 mb 0.00 in0.0 mm 0.00 in0.0 mm 0.00 in0.0 mm
04:49 PM 46.3°F7.9°C 29.1°F-1.6°C 51% 3.3 mph E5.3 kmh E 7.6 mph12.2 kmh 30.56 in1034.9 mb 0.00 in0.0 mm 0.00 in0.0 mm 0.00 in0.0 mm
04:54 PM 46.3°F7.9°C 29.6°F-1.3°C 52% 5.7 mph ENE9.2 kmh ENE 7.2 mph11.6 kmh 30.56 in1034.9 mb 0.00 in0.0 mm 0.00 in0.0 mm 0.00 in0.0 mm
04:59 PM 45.9°F7.7°C 29.2°F-1.6°C 52% 5.5 mph E8.9 kmh E 7.2 mph11.6 kmh 30.56 in1034.9 mb 0.00 in0.0 mm 0.00 in0.0 mm 0.00 in0.0 mm
05:04 PM 45.4°F7.4°C 28.8°F-1.8°C 52% 6.6 mph NE10.6 kmh NE 11.2 mph18.0 kmh 30.56 in1034.9 mb 0.00 in0.0 mm 0.00 in0.0 mm 0.00 in0.0 mm
05:09 PM 45.4°F7.4°C 28.8°F-1.8°C 52% 3.3 mph NE5.3 kmh NE 11.2 mph18.0 kmh 30.56 in1034.9 mb 0.00 in0.0 mm 0.00 in0.0 mm 0.00 in0.0 mm
05:14 PM 45.2°F7.3°C 28.6°F-1.9°C 52% 9.0 mph NE14.5 kmh NE 11.6 mph18.7 kmh 30.56 in1034.9 mb 0.00 in0.0 mm 0.00 in0.0 mm 0.00 in0.0 mm
05:21 PM 45.0°F7.2°C 28.9°F-1.7°C 53% 5.6 mph E9.0 kmh E 11.6 mph18.7 kmh 30.56 in1034.9 mb 0.00 in0.0 mm 0.00 in0.0 mm 0.00 in0.0 mm
05:26 PM 45.0°F7.2°C 28.9°F-1.7°C 53% 4.3 mph ESE6.9 kmh ESE 8.6 mph13.8 kmh 30.56 in1034.9 mb 0.00 in0.0 mm 0.00 in0.0 mm 0.00 in0.0 mm
05:31 PM 45.0°F7.2°C 29.4°F-1.4°C 54% 5.9 mph E9.5 kmh E 8.0 mph12.9 kmh 30.56 in1034.9 mb 0.00 in0.0 mm 0.00 in0.0 mm 0.00 in0.0 mm
05:36 PM 45.0°F7.2°C 29.4°F-1.4°C 54% 2.8 mph NE4.5 kmh NE 8.0 mph12.9 kmh 30.56 in1034.9 mb 0.00 in0.0 mm 0.00 in0.0 mm 0.00 in0.0 mm
05:45 PM 44.7°F7.1°C 29.1°F-1.6°C 54% 6.3 mph ENE10.1 kmh ENE 10.8 mph17.4 kmh 30.53 in1033.9 mb 0.00 in0.0 mm 0.00 in0.0 mm 0.00 in0.0 mm
05:50 PM 44.7°F7.1°C 29.1°F-1.6°C 54% 4.2 mph E6.8 kmh E 7.6 mph12.2 kmh 30.53 in1033.9 mb 0.00 in0.0 mm 0.00 in0.0 mm 0.00 in0.0 mm
05:56 PM 44.7°F7.1°C 29.5°F-1.4°C 55% 5.6 mph ENE9.0 kmh ENE 8.0 mph12.9 kmh 30.53 in1033.9 mb 0.00 in0.0 mm 0.00 in0.0 mm 0.00 in0.0 mm
06:00 PM 44.3°F6.8°C 29.2°F-1.6°C 55% 4.5 mph ENE7.2 kmh ENE 9.4 mph15.1 kmh 30.53 in1033.9 mb 0.00 in0.0 mm 0.00 in0.0 mm 0.00 in0.0 mm
06:06 PM 44.3°F6.8°C 29.6°F-1.3°C 56% 4.3 mph ENE6.9 kmh ENE 9.4 mph15.1 kmh 30.53 in1033.9 mb 0.00 in0.0 mm 0.00 in0.0 mm 0.00 in0.0 mm
06:11 PM 44.1°F6.7°C 29.4°F-1.4°C 56% 4.8 mph NE7.7 kmh NE 7.6 mph12.2 kmh 30.53 in1033.9 mb 0.00 in0.0 mm 0.00 in0.0 mm 0.00 in0.0 mm
06:16 PM 44.1°F6.7°C 29.4°F-1.4°C 56% 6.0 mph NE9.7 kmh NE 8.6 mph13.8 kmh 30.56 in1034.9 mb 0.00 in0.0 mm 0.00 in0.0 mm 0.00 in0.0 mm
06:21 PM 44.0°F6.7°C 29.8°F-1.2°C 57% 6.2 mph NE10.0 kmh NE 8.6 mph13.8 kmh 30.56 in1034.9 mb 0.00 in0.0 mm 0.00 in0.0 mm 0.00 in0.0 mm
06:27 PM 43.6°F6.4°C 29.4°F-1.4°C 57% 6.7 mph NE10.8 kmh NE 9.8 mph15.8 kmh 30.56 in1034.9 mb 0.00 in0.0 mm 0.00 in0.0 mm 0.00 in0.0 mm
06:32 PM 43.4°F6.3°C 29.6°F-1.3°C 58% 4.7 mph NNE7.6 kmh NNE 9.8 mph15.8 kmh 30.56 in1034.9 mb 0.00 in0.0 mm 0.00 in0.0 mm 0.00 in0.0 mm
06:37 PM 43.6°F6.4°C 29.8°F-1.2°C 58% 4.4 mph E7.1 kmh E 8.6 mph13.8 kmh 30.56 in1034.9 mb 0.00 in0.0 mm 0.00 in0.0 mm 0.00 in0.0 mm
06:42 PM 43.4°F6.3°C 30.1°F-1.1°C 59% 4.1 mph E6.6 kmh E 7.6 mph12.2 kmh 30.56 in1034.9 mb 0.00 in0.0 mm 0.00 in0.0 mm 0.00 in0.0 mm
06:48 PM 43.4°F6.3°C 30.1°F-1.1°C 59% 3.2 mph E5.1 kmh E 7.2 mph11.6 kmh 30.56 in1034.9 mb 0.00 in0.0 mm 0.00 in0.0 mm 0.00 in0.0 mm
06:53 PM 43.4°F6.3°C 30.1°F-1.1°C 59% 3.4 mph E5.5 kmh E 7.2 mph11.6 kmh 30.56 in1034.9 mb 0.00 in0.0 mm 0.00 in0.0 mm 0.00 in0.0 mm
06:58 PM 43.2°F6.2°C 30.3°F-0.9°C 60% 3.4 mph ESE5.5 kmh ESE 7.2 mph11.6 kmh 30.53 in1033.9 mb 0.00 in0.0 mm 0.00 in0.0 mm 0.00 in0.0 mm
07:03 PM 43.2°F6.2°C 30.3°F-0.9°C 60% 5.1 mph ENE8.2 kmh ENE 6.2 mph10.0 kmh 30.53 in1033.9 mb 0.00 in0.0 mm 0.00 in0.0 mm 0.00 in0.0 mm
07:08 PM 43.1°F6.2°C 30.2°F-1.0°C 60% 3.3 mph ESE5.3 kmh ESE 6.2 mph10.0 kmh 30.53 in1033.9 mb 0.00 in0.0 mm 0.00 in0.0 mm 0.00 in0.0 mm
07:13 PM 43.1°F6.2°C 30.6°F-0.8°C 61% 3.3 mph ESE5.3 kmh ESE 5.8 mph9.3 kmh 30.53 in1033.9 mb 0.00 in0.0 mm 0.00 in0.0 mm 0.00 in0.0 mm
07:18 PM 42.9°F6.1°C 30.4°F-0.9°C 61% 3.3 mph ENE5.3 kmh ENE 5.8 mph9.3 kmh 30.53 in1033.9 mb 0.00 in0.0 mm 0.00 in0.0 mm 0.00 in0.0 mm
07:23 PM 42.9°F6.1°C 30.8°F-0.7°C 62% 6.3 mph ENE10.1 kmh ENE 8.0 mph12.9 kmh 30.53 in1033.9 mb 0.00 in0.0 mm 0.00 in0.0 mm 0.00 in0.0 mm
07:28 PM 42.9°F6.1°C 30.8°F-0.7°C 62% 4.0 mph ENE6.4 kmh ENE 8.0 mph12.9 kmh 30.53 in1033.9 mb 0.00 in0.0 mm 0.00 in0.0 mm 0.00 in0.0 mm
07:33 PM 42.9°F6.1°C 31.2°F-0.4°C 63% 2.8 mph ENE4.5 kmh ENE 7.2 mph11.6 kmh 30.53 in1033.9 mb 0.00 in0.0 mm 0.00 in0.0 mm 0.00 in0.0 mm
07:38 PM 42.7°F5.9°C 31.1°F-0.5°C 63% 4.6 mph ENE7.4 kmh ENE 6.8 mph10.9 kmh 30.53 in1033.9 mb 0.00 in0.0 mm 0.00 in0.0 mm 0.00 in0.0 mm
07:43 PM 42.7°F5.9°C 31.1°F-0.5°C 63% 6.2 mph ENE10.0 kmh ENE 6.8 mph10.9 kmh 30.53 in1033.9 mb 0.00 in0.0 mm 0.00 in0.0 mm 0.00 in0.0 mm
07:48 PM 42.7°F5.9°C 31.4°F-0.3°C 64% 5.1 mph NE8.2 kmh NE 7.6 mph12.2 kmh 30.53 in1033.9 mb 0.00 in0.0 mm 0.00 in0.0 mm 0.00 in0.0 mm
07:53 PM 42.5°F5.8°C 31.3°F-0.4°C 64% 5.8 mph NE9.3 kmh NE 7.6 mph12.2 kmh 30.53 in1033.9 mb 0.00 in0.0 mm 0.00 in0.0 mm 0.00 in0.0 mm
07:59 PM 42.5°F5.8°C 31.6°F-0.2°C 65% 6.4 mph NNE10.3 kmh NNE 8.0 mph12.9 kmh 30.53 in1033.9 mb 0.00 in0.0 mm 0.00 in0.0 mm 0.00 in0.0 mm
08:04 PM 42.3°F5.7°C 31.5°F-0.3°C 65% 6.2 mph NE10.0 kmh NE 8.0 mph12.9 kmh 30.53 in1033.9 mb 0.00 in0.0 mm 0.00 in0.0 mm 0.00 in0.0 mm
08:10 PM 42.3°F5.7°C 31.5°F-0.3°C 65% 5.4 mph ENE8.7 kmh ENE 8.6 mph13.8 kmh 30.53 in1033.9 mb 0.00 in0.0 mm 0.00 in0.0 mm 0.00 in0.0 mm
08:15 PM 42.3°F5.7°C 31.5°F-0.3°C 65% 3.5 mph ENE5.6 kmh ENE 8.6 mph13.8 kmh 30.53 in1033.9 mb 0.00 in0.0 mm 0.00 in0.0 mm 0.00 in0.0 mm
08:20 PM 42.3°F5.7°C 31.5°F-0.3°C 65% 6.1 mph ENE9.8 kmh ENE 7.6 mph12.2 kmh 30.53 in1033.9 mb 0.00 in0.0 mm 0.00 in0.0 mm 0.00 in0.0 mm
08:25 PM 42.3°F5.7°C 31.5°F-0.3°C 65% 6.9 mph ENE11.1 kmh ENE 9.4 mph15.1 kmh 30.53 in1033.9 mb 0.00 in0.0 mm 0.00 in0.0 mm 0.00 in0.0 mm
08:30 PM 42.3°F5.7°C 31.5°F-0.3°C 65% 4.7 mph ENE7.6 kmh ENE 9.4 mph15.1 kmh 30.56 in1034.9 mb 0.00 in0.0 mm 0.00 in0.0 mm 0.00 in0.0 mm
08:35 PM 42.3°F5.7°C 31.8°F-0.1°C 66% 5.1 mph E8.2 kmh E 6.8 mph10.9 kmh 30.56 in1034.9 mb 0.00 in0.0 mm 0.00 in0.0 mm 0.00 in0.0 mm
08:41 PM 42.3°F5.7°C 31.8°F-0.1°C 66% 3.6 mph E5.8 kmh E 6.8 mph10.9 kmh 30.56 in1034.9 mb 0.00 in0.0 mm 0.00 in0.0 mm 0.00 in0.0 mm
08:46 PM 42.3°F5.7°C 31.8°F-0.1°C 66% 3.7 mph ENE6.0 kmh ENE 6.2 mph10.0 kmh 30.56 in1034.9 mb 0.00 in0.0 mm 0.00 in0.0 mm 0.00 in0.0 mm
08:51 PM 42.2°F5.7°C 31.7°F-0.2°C 66% 6.2 mph ENE10.0 kmh ENE 7.2 mph11.6 kmh 30.56 in1034.9 mb 0.00 in0.0 mm 0.00 in0.0 mm 0.00 in0.0 mm
08:56 PM 42.2°F5.7°C 31.7°F-0.2°C 66% 5.1 mph ENE8.2 kmh ENE 7.2 mph11.6 kmh 30.56 in1034.9 mb 0.00 in0.0 mm 0.00 in0.0 mm 0.00 in0.0 mm
09:01 PM 42.2°F5.7°C 31.7°F-0.2°C 66% 4.5 mph NE7.2 kmh NE 7.2 mph11.6 kmh 30.56 in1034.9 mb 0.00 in0.0 mm 0.00 in0.0 mm 0.00 in0.0 mm
09:06 PM 42.2°F5.7°C 31.7°F-0.2°C 66% 4.7 mph E7.6 kmh E 6.2 mph10.0 kmh 30.56 in1034.9 mb 0.00 in0.0 mm 0.00 in0.0 mm 0.00 in0.0 mm
09:12 PM 42.2°F5.7°C 31.7°F-0.2°C 66% 3.7 mph E6.0 kmh E 7.6 mph12.2 kmh 30.56 in1034.9 mb 0.00 in0.0 mm 0.00 in0.0 mm 0.00 in0.0 mm
09:17 PM 42.2°F5.7°C 31.7°F-0.2°C 66% 2.0 mph ENE3.2 kmh ENE 5.4 mph8.7 kmh 30.56 in1034.9 mb 0.00 in0.0 mm 0.00 in0.0 mm 0.00 in0.0 mm
09:23 PM 42.2°F5.7°C 31.7°F-0.2°C 66% 2.8 mph NE4.5 kmh NE 5.8 mph9.3 kmh 30.56 in1034.9 mb 0.00 in0.0 mm 0.00 in0.0 mm 0.00 in0.0 mm
09:28 PM 42.2°F5.7°C 31.7°F-0.2°C 66% 2.1 mph ENE3.4 kmh ENE 5.8 mph9.3 kmh 30.53 in1033.9 mb 0.00 in0.0 mm 0.00 in0.0 mm 0.00 in0.0 mm
09:33 PM 42.2°F5.7°C 32.1°F0.1°C 67% Calm Calm 3.2 mph5.1 kmh 30.53 in1033.9 mb 0.00 in0.0 mm 0.00 in0.0 mm 0.00 in0.0 mm
09:38 PM 42.2°F5.7°C 32.1°F0.1°C 67% Calm Calm -- 30.53 in1033.9 mb 0.00 in0.0 mm 0.00 in0.0 mm 0.00 in0.0 mm
09:43 PM 42.2°F5.7°C 32.1°F0.1°C 67% Calm Calm -- 30.56 in1034.9 mb 0.00 in0.0 mm 0.00 in0.0 mm 0.00 in0.0 mm
09:48 PM 42.2°F5.7°C 32.1°F0.1°C 67% 2.0 mph ENE3.2 kmh ENE 4.0 mph6.4 kmh 30.56 in1034.9 mb 0.00 in0.0 mm 0.00 in0.0 mm 0.00 in0.0 mm
09:54 PM 42.2°F5.7°C 32.1°F0.1°C 67% Calm Calm 4.0 mph6.4 kmh 30.56 in1034.9 mb 0.00 in0.0 mm 0.00 in0.0 mm 0.00 in0.0 mm
09:59 PM 42.0°F5.6°C 31.9°F-0.1°C 67% Calm Calm -- 30.56 in1034.9 mb 0.00 in0.0 mm 0.00 in0.0 mm 0.00 in0.0 mm
10:05 PM 42.0°F5.6°C 31.9°F-0.1°C 67% Calm Calm -- 30.56 in1034.9 mb 0.00 in0.0 mm 0.00 in0.0 mm 0.00 in0.0 mm
10:11 PM 42.0°F5.6°C 31.9°F-0.1°C 67% Calm Calm -- 30.56 in1034.9 mb 0.00 in0.0 mm 0.00 in0.0 mm 0.00 in0.0 mm
10:16 PM 42.0°F5.6°C 31.9°F-0.1°C 67% Calm Calm -- 30.59 in1035.9 mb 0.00 in0.0 mm 0.00 in0.0 mm 0.00 in0.0 mm
10:21 PM 42.0°F5.6°C 31.9°F-0.1°C 67% 3.2 mph ENE5.1 kmh ENE 3.2 mph5.1 kmh 30.59 in1035.9 mb 0.00 in0.0 mm 0.00 in0.0 mm 0.00 in0.0 mm
10:27 PM 42.0°F5.6°C 31.9°F-0.1°C 67% 2.5 mph ENE4.0 kmh ENE 4.0 mph6.4 kmh 30.59 in1035.9 mb 0.00 in0.0 mm 0.00 in0.0 mm 0.00 in0.0 mm
10:32 PM 42.0°F5.6°C 32.3°F0.2°C 68% 1.8 mph E2.9 kmh E 3.2 mph5.1 kmh 30.56 in1034.9 mb 0.00 in0.0 mm 0.00 in0.0 mm 0.00 in0.0 mm
10:37 PM 42.0°F5.6°C 32.3°F0.2°C 68% Calm Calm 2.2 mph3.5 kmh 30.56 in1034.9 mb 0.00 in0.0 mm 0.00 in0.0 mm 0.00 in0.0 mm
10:42 PM 42.0°F5.6°C 32.3°F0.2°C 68% Calm Calm -- 30.56 in1034.9 mb 0.00 in0.0 mm 0.00 in0.0 mm 0.00 in0.0 mm
10:47 PM 42.0°F5.6°C 32.3°F0.2°C 68% Calm Calm -- 30.53 in1033.9 mb 0.00 in0.0 mm 0.00 in0.0 mm 0.00 in0.0 mm
10:52 PM 42.0°F5.6°C 32.3°F0.2°C 68% Calm Calm -- 30.53 in1033.9 mb 0.00 in0.0 mm 0.00 in0.0 mm 0.00 in0.0 mm
10:57 PM 41.8°F5.4°C 32.5°F0.3°C 69% Calm Calm -- 30.53 in1033.9 mb 0.00 in0.0 mm 0.00 in0.0 mm 0.00 in0.0 mm
11:02 PM 41.8°F5.4°C 32.5°F0.3°C 69% Calm Calm -- 30.56 in1034.9 mb 0.00 in0.0 mm 0.00 in0.0 mm 0.00 in0.0 mm
11:07 PM 41.8°F5.4°C 32.5°F0.3°C 69% Calm Calm -- 30.56 in1034.9 mb 0.00 in0.0 mm 0.00 in0.0 mm 0.00 in0.0 mm
11:12 PM 41.8°F5.4°C 32.8°F0.4°C 70% Calm Calm -- 30.56 in1034.9 mb 0.00 in0.0 mm 0.00 in0.0 mm 0.00 in0.0 mm
11:17 PM 41.8°F5.4°C 32.8°F0.4°C 70% Calm Calm -- 30.56 in1034.9 mb 0.00 in0.0 mm 0.00 in0.0 mm 0.00 in0.0 mm
11:22 PM 41.8°F5.4°C 32.8°F0.4°C 70% Calm Calm -- 30.56 in1034.9 mb 0.00 in0.0 mm 0.00 in0.0 mm 0.00 in0.0 mm
11:29 PM 41.6°F5.3°C 33.0°F0.6°C 71% Calm Calm -- 30.56 in1034.9 mb 0.00 in0.0 mm 0.00 in0.0 mm 0.00 in0.0 mm
11:34 PM 41.6°F5.3°C 33.0°F0.6°C 71% Calm Calm -- 30.56 in1034.9 mb 0.00 in0.0 mm 0.00 in0.0 mm 0.00 in0.0 mm
11:39 PM 41.6°F5.3°C 33.0°F0.6°C 71% Calm Calm -- 30.56 in1034.9 mb 0.00 in0.0 mm 0.00 in0.0 mm 0.00 in0.0 mm
11:44 PM 41.6°F5.3°C 33.0°F0.6°C 71% Calm Calm -- 30.53 in1033.9 mb 0.00 in0.0 mm 0.00 in0.0 mm 0.00 in0.0 mm
11:49 PM 41.6°F5.3°C 33.3°F0.7°C 72% Calm Calm -- 30.53 in1033.9 mb 0.00 in0.0 mm 0.00 in0.0 mm 0.00 in0.0 mm
11:54 PM 41.6°F5.3°C 33.3°F0.7°C 72% Calm Calm -- 30.53 in1033.9 mb 0.00 in0.0 mm 0.00 in0.0 mm 0.00 in0.0 mm
11:59 PM 41.6°F5.3°C 33.3°F0.7°C 72% Calm Calm -- 30.53 in1033.9 mb 0.00 in0.0 mm 0.00 in0.0 mm 0.00 in0.0 mm